sensor_id;sensor_type;location;lat;lon;timestamp;P1;durP1;ratioP1;P2;durP2;ratioP2
22983;SDS011;11658;48.908;9.140;2023-05-07T05:02:01;3.47;;;3.17;;
22983;SDS011;11658;48.908;9.140;2023-05-07T05:04:32;3.07;;;2.83;;
22983;SDS011;11658;48.908;9.140;2023-05-07T05:06:57;3.77;;;2.73;;
22983;SDS011;11658;48.908;9.140;2023-05-07T05:09:23;3.10;;;2.80;;
22983;SDS011;11658;48.908;9.140;2023-05-07T05:11:49;3.30;;;2.53;;
22983;SDS011;11658;48.908;9.140;2023-05-07T05:14:14;3.80;;;3.33;;
22983;SDS011;11658;48.908;9.140;2023-05-07T05:16:40;3.37;;;3.07;;
22983;SDS011;11658;48.908;9.140;2023-05-07T05:19:05;5.70;;;3.13;;
22983;SDS011;11658;48.908;9.140;2023-05-07T05:21:31;4.23;;;3.53;;
22983;SDS011;11658;48.908;9.140;2023-05-07T05:23:57;3.10;;;2.80;;
22983;SDS011;11658;48.908;9.140;2023-05-07T05:26:23;4.70;;;3.20;;
22983;SDS011;11658;48.908;9.140;2023-05-07T05:28:49;3.27;;;2.97;;
22983;SDS011;11658;48.908;9.140;2023-05-07T05:31:15;3.23;;;3.03;;
22983;SDS011;11658;48.908;9.140;2023-05-07T05:33:41;4.53;;;2.93;;
22983;SDS011;11658;48.908;9.140;2023-05-07T05:36:08;4.50;;;2.60;;
22983;SDS011;11658;48.908;9.140;2023-05-07T05:38:35;2.97;;;2.63;;
22983;SDS011;11658;48.908;9.140;2023-05-07T05:41:00;3.27;;;2.97;;
22983;SDS011;11658;48.908;9.140;2023-05-07T05:43:26;4.47;;;2.87;;
22983;SDS011;11658;48.908;9.140;2023-05-07T05:45:51;3.87;;;2.90;;
22983;SDS011;11658;48.908;9.140;2023-05-07T05:48:17;4.63;;;2.90;;
22983;SDS011;11658;48.908;9.140;2023-05-07T05:50:43;2.67;;;2.43;;
22983;SDS011;11658;48.908;9.140;2023-05-07T05:53:08;4.13;;;2.40;;
22983;SDS011;11658;48.908;9.140;2023-05-07T05:55:34;2.67;;;2.23;;
22983;SDS011;11658;48.908;9.140;2023-05-07T05:58:00;2.83;;;2.63;;
22983;SDS011;11658;48.908;9.140;2023-05-07T06:00:26;2.70;;;2.43;;
22983;SDS011;11658;48.908;9.140;2023-05-07T06:02:52;3.83;;;2.53;;
22983;SDS011;11658;48.908;9.140;2023-05-07T06:05:18;2.50;;;2.30;;
22983;SDS011;11658;48.908;9.140;2023-05-07T06:07:43;4.40;;;2.13;;
22983;SDS011;11658;48.908;9.140;2023-05-07T06:10:09;4.13;;;2.27;;
22983;SDS011;11658;48.908;9.140;2023-05-07T06:12:35;2.70;;;1.93;;
22983;SDS011;11658;48.908;9.140;2023-05-07T06:15:00;3.03;;;2.10;;
22983;SDS011;11658;48.908;9.140;2023-05-07T06:17:26;5.00;;;2.17;;
22983;SDS011;11658;48.908;9.140;2023-05-07T06:19:52;4.60;;;2.60;;
22983;SDS011;11658;48.908;9.140;2023-05-07T06:22:18;2.73;;;2.20;;
22983;SDS011;11658;48.908;9.140;2023-05-07T06:24:43;2.73;;;2.10;;
22983;SDS011;11658;48.908;9.140;2023-05-07T06:27:09;2.83;;;1.90;;
22983;SDS011;11658;48.908;9.140;2023-05-07T06:29:35;2.30;;;1.83;;
22983;SDS011;11658;48.908;9.140;2023-05-07T06:32:10;3.53;;;2.20;;
22983;SDS011;11658;48.908;9.140;2023-05-07T06:34:37;2.40;;;2.20;;
22983;SDS011;11658;48.908;9.140;2023-05-07T06:37:03;2.37;;;2.17;;
22983;SDS011;11658;48.908;9.140;2023-05-07T06:39:28;2.40;;;2.20;;
22983;SDS011;11658;48.908;9.140;2023-05-07T06:41:54;2.57;;;2.33;;
22983;SDS011;11658;48.908;9.140;2023-05-07T06:44:20;2.30;;;2.10;;
22983;SDS011;11658;48.908;9.140;2023-05-07T06:46:45;2.53;;;1.93;;
22983;SDS011;11658;48.908;9.140;2023-05-07T06:49:14;3.60;;;2.20;;
22983;SDS011;11658;48.908;9.140;2023-05-07T06:51:40;2.30;;;2.10;;
22983;SDS011;11658;48.908;9.140;2023-05-07T06:54:05;3.20;;;2.10;;
22983;SDS011;11658;48.908;9.140;2023-05-07T06:56:31;2.93;;;1.90;;
22983;SDS011;11658;48.908;9.140;2023-05-07T06:58:57;4.13;;;1.90;;
22983;SDS011;11658;48.908;9.140;2023-05-07T07:01:24;2.63;;;1.93;;
22983;SDS011;11658;48.908;9.140;2023-05-07T07:03:50;2.23;;;1.90;;
22983;SDS011;11658;48.908;9.140;2023-05-07T07:06:16;3.80;;;1.83;;
22983;SDS011;11658;48.908;9.140;2023-05-07T07:08:42;2.40;;;1.77;;
22983;SDS011;11658;48.908;9.140;2023-05-07T07:11:08;2.03;;;1.80;;
22983;SDS011;11658;48.908;9.140;2023-05-07T07:13:35;1.90;;;1.70;;
22983;SDS011;11658;48.908;9.140;2023-05-07T07:16:01;2.13;;;1.80;;
22983;SDS011;11658;48.908;9.140;2023-05-07T07:18:26;2.97;;;1.80;;
22983;SDS011;11658;48.908;9.140;2023-05-07T07:20:52;2.63;;;1.53;;
22983;SDS011;11658;48.908;9.140;2023-05-07T07:23:18;2.77;;;1.70;;
22983;SDS011;11658;48.908;9.140;2023-05-07T07:25:43;3.43;;;1.93;;
22983;SDS011;11658;48.908;9.140;2023-05-07T07:28:09;2.27;;;1.77;;
22983;SDS011;11658;48.908;9.140;2023-05-07T07:30:35;3.60;;;1.80;;
22983;SDS011;11658;48.908;9.140;2023-05-07T07:33:02;4.17;;;2.20;;
22983;SDS011;11658;48.908;9.140;2023-05-07T07:35:31;5.20;;;1.90;;
22983;SDS011;11658;48.908;9.140;2023-05-07T07:37:57;2.10;;;1.90;;
22983;SDS011;11658;48.908;9.140;2023-05-07T07:40:23;2.63;;;1.97;;
22983;SDS011;11658;48.908;9.140;2023-05-07T07:42:50;3.07;;;1.80;;
22983;SDS011;11658;48.908;9.140;2023-05-07T07:45:16;3.23;;;2.00;;
22983;SDS011;11658;48.908;9.140;2023-05-07T07:47:41;2.03;;;1.80;;
22983;SDS011;11658;48.908;9.140;2023-05-07T07:50:07;2.73;;;2.40;;
22983;SDS011;11658;48.908;9.140;2023-05-07T07:52:33;3.77;;;2.20;;
22983;SDS011;11658;48.908;9.140;2023-05-07T07:54:59;3.70;;;2.00;;
22983;SDS011;11658;48.908;9.140;2023-05-07T07:57:25;4.22;;;2.17;;
22983;SDS011;11658;48.908;9.140;2023-05-07T07:59:50;2.77;;;2.10;;
22983;SDS011;11658;48.908;9.140;2023-05-07T08:02:16;2.10;;;1.90;;
22983;SDS011;11658;48.908;9.140;2023-05-07T08:04:42;3.97;;;2.13;;
22983;SDS011;11658;48.908;9.140;2023-05-07T08:07:11;2.83;;;2.00;;
22983;SDS011;11658;48.908;9.140;2023-05-07T08:09:37;2.20;;;2.00;;
22983;SDS011;11658;48.908;9.140;2023-05-07T08:12:04;2.57;;;2.30;;
22983;SDS011;11658;48.908;9.140;2023-05-07T08:14:32;2.50;;;1.97;;
22983;SDS011;11658;48.908;9.140;2023-05-07T08:16:59;2.40;;;2.20;;
22983;SDS011;11658;48.908;9.140;2023-05-07T08:19:24;2.30;;;2.10;;
22983;SDS011;11658;48.908;9.140;2023-05-07T08:21:50;2.40;;;2.00;;
22983;SDS011;11658;48.908;9.140;2023-05-07T08:24:16;2.57;;;2.00;;
22983;SDS011;11658;48.908;9.140;2023-05-07T08:26:43;2.10;;;1.90;;
22983;SDS011;11658;48.908;9.140;2023-05-07T08:29:09;3.13;;;2.00;;
22983;SDS011;11658;48.908;9.140;2023-05-07T08:31:34;2.70;;;2.03;;
22983;SDS011;11658;48.908;9.140;2023-05-07T08:34:00;2.70;;;1.88;;
22983;SDS011;11658;48.908;9.140;2023-05-07T08:36:26;2.65;;;2.00;;
22983;SDS011;11658;48.908;9.140;2023-05-07T08:38:52;2.35;;;2.13;;
22983;SDS011;11658;48.908;9.140;2023-05-07T08:41:20;3.85;;;2.40;;
22983;SDS011;11658;48.908;9.140;2023-05-07T08:43:49;1.77;;;1.67;;
22983;SDS011;11658;48.908;9.140;2023-05-07T08:46:20;2.15;;;1.95;;
22983;SDS011;11658;48.908;9.140;2023-05-07T08:48:50;3.10;;;2.10;;
22983;SDS011;11658;48.908;9.140;2023-05-07T08:51:20;4.20;;;2.17;;
22983;SDS011;11658;48.908;9.140;2023-05-07T08:53:47;2.35;;;2.15;;
22983;SDS011;11658;48.908;9.140;2023-05-07T08:56:14;2.75;;;2.30;;
22983;SDS011;11658;48.908;9.140;2023-05-07T08:58:40;3.45;;;2.20;;
22983;SDS011;11658;48.908;9.140;2023-05-07T09:01:08;4.10;;;2.38;;
22983;SDS011;11658;48.908;9.140;2023-05-07T09:03:37;4.35;;;1.90;;
22983;SDS011;11658;48.908;9.140;2023-05-07T09:06:04;4.32;;;2.55;;
22983;SDS011;11658;48.908;9.140;2023-05-07T09:08:31;2.25;;;1.98;;
22983;SDS011;11658;48.908;9.140;2023-05-07T09:10:58;2.30;;;2.10;;
22983;SDS011;11658;48.908;9.140;2023-05-07T09:13:24;3.20;;;2.30;;
22983;SDS011;11658;48.908;9.140;2023-05-07T09:15:49;2.95;;;2.38;;
22983;SDS011;11658;48.908;9.140;2023-05-07T09:18:15;2.47;;;2.28;;
22983;SDS011;11658;48.908;9.140;2023-05-07T09:20:41;2.20;;;2.00;;
22983;SDS011;11658;48.908;9.140;2023-05-07T09:23:07;3.05;;;2.35;;
22983;SDS011;11658;48.908;9.140;2023-05-07T09:25:33;2.85;;;2.50;;
22983;SDS011;11658;48.908;9.140;2023-05-07T09:28:01;3.33;;;2.40;;
22983;SDS011;11658;48.908;9.140;2023-05-07T09:30:28;3.13;;;2.50;;
22983;SDS011;11658;48.908;9.140;2023-05-07T09:32:54;3.58;;;2.33;;
22983;SDS011;11658;48.908;9.140;2023-05-07T09:35:22;2.70;;;2.20;;
22983;SDS011;11658;48.908;9.140;2023-05-07T09:37:51;3.40;;;2.40;;
22983;SDS011;11658;48.908;9.140;2023-05-07T09:40:27;3.65;;;2.30;;
22983;SDS011;11658;48.908;9.140;2023-05-07T09:42:54;5.40;;;2.10;;
22983;SDS011;11658;48.908;9.140;2023-05-07T09:45:26;4.10;;;1.90;;
22983;SDS011;11658;48.908;9.140;2023-05-07T09:47:54;2.50;;;2.08;;
22983;SDS011;11658;48.908;9.140;2023-05-07T09:50:25;2.50;;;1.95;;
22983;SDS011;11658;48.908;9.140;2023-05-07T09:52:56;3.10;;;2.20;;
22983;SDS011;11658;48.908;9.140;2023-05-07T09:55:22;2.63;;;2.30;;
22983;SDS011;11658;48.908;9.140;2023-05-07T09:57:51;2.75;;;2.10;;
22983;SDS011;11658;48.908;9.140;2023-05-07T10:00:19;2.50;;;2.30;;
22983;SDS011;11658;48.908;9.140;2023-05-07T10:02:46;3.88;;;2.13;;
22983;SDS011;11658;48.908;9.140;2023-05-07T10:05:16;2.97;;;1.75;;
22983;SDS011;11658;48.908;9.140;2023-05-07T10:07:42;2.30;;;2.10;;
22983;SDS011;11658;48.908;9.140;2023-05-07T10:10:08;2.20;;;2.00;;
22983;SDS011;11658;48.908;9.140;2023-05-07T10:12:34;2.38;;;2.10;;
22983;SDS011;11658;48.908;9.140;2023-05-07T10:15:07;5.93;;;2.15;;
22983;SDS011;11658;48.908;9.140;2023-05-07T10:17:37;2.67;;;2.30;;
22983;SDS011;11658;48.908;9.140;2023-05-07T10:20:07;2.05;;;1.92;;
22983;SDS011;11658;48.908;9.140;2023-05-07T10:22:43;1.92;;;1.80;;
22983;SDS011;11658;48.908;9.140;2023-05-07T10:25:18;2.72;;;2.20;;
22983;SDS011;11658;48.908;9.140;2023-05-07T10:27:49;3.55;;;2.30;;
22983;SDS011;11658;48.908;9.140;2023-05-07T10:32:55;2.15;;;1.90;;
22983;SDS011;11658;48.908;9.140;2023-05-07T10:35:31;2.00;;;1.80;;
22983;SDS011;11658;48.908;9.140;2023-05-07T10:38:01;2.88;;;2.05;;
22983;SDS011;11658;48.908;9.140;2023-05-07T10:40:27;2.88;;;1.90;;
22983;SDS011;11658;48.908;9.140;2023-05-07T10:42:57;4.07;;;2.08;;
22983;SDS011;11658;48.908;9.140;2023-05-07T10:45:27;2.53;;;1.92;;
22983;SDS011;11658;48.908;9.140;2023-05-07T10:48:10;3.72;;;2.22;;
22983;SDS011;11658;48.908;9.140;2023-05-07T10:50:36;2.20;;;1.75;;
22983;SDS011;11658;48.908;9.140;2023-05-07T10:55:44;2.10;;;1.90;;
22983;SDS011;11658;48.908;9.140;2023-05-07T10:58:26;2.45;;;1.90;;
22983;SDS011;11658;48.908;9.140;2023-05-07T11:00:56;2.20;;;2.00;;
22983;SDS011;11658;48.908;9.140;2023-05-07T11:03:24;2.67;;;2.25;;
22983;SDS011;11658;48.908;9.140;2023-05-07T11:06:09;2.40;;;2.10;;
22983;SDS011;11658;48.908;9.140;2023-05-07T11:11:17;2.45;;;2.00;;
22983;SDS011;11658;48.908;9.140;2023-05-07T11:13:49;2.20;;;1.88;;
22983;SDS011;11658;48.908;9.140;2023-05-07T11:16:22;2.20;;;2.00;;
22983;SDS011;11658;48.908;9.140;2023-05-07T11:18:52;2.03;;;1.73;;
22983;SDS011;11658;48.908;9.140;2023-05-07T11:21:35;1.95;;;1.80;;
22983;SDS011;11658;48.908;9.140;2023-05-07T11:24:01;3.28;;;1.90;;
22983;SDS011;11658;48.908;9.140;2023-05-07T11:26:29;1.83;;;1.60;;
22983;SDS011;11658;48.908;9.140;2023-05-07T11:28:56;2.63;;;2.13;;
22983;SDS011;11658;48.908;9.140;2023-05-07T11:31:25;2.10;;;1.80;;
22983;SDS011;11658;48.908;9.140;2023-05-07T11:33:53;2.58;;;1.90;;
22983;SDS011;11658;48.908;9.140;2023-05-07T11:36:20;3.50;;;1.92;;
22983;SDS011;11658;48.908;9.140;2023-05-07T11:38:47;2.20;;;1.60;;
22983;SDS011;11658;48.908;9.140;2023-05-07T11:41:12;2.95;;;2.10;;
22983;SDS011;11658;48.908;9.140;2023-05-07T11:43:40;2.80;;;1.60;;
22983;SDS011;11658;48.908;9.140;2023-05-07T11:46:20;2.00;;;1.80;;
22983;SDS011;11658;48.908;9.140;2023-05-07T11:48:45;1.60;;;1.50;;
22983;SDS011;11658;48.908;9.140;2023-05-07T11:51:11;3.03;;;1.42;;
22983;SDS011;11658;48.908;9.140;2023-05-07T11:53:38;2.22;;;1.40;;
22983;SDS011;11658;48.908;9.140;2023-05-07T11:56:06;2.08;;;1.50;;
22983;SDS011;11658;48.908;9.140;2023-05-07T11:58:35;2.90;;;1.40;;
22983;SDS011;11658;48.908;9.140;2023-05-07T12:01:01;2.95;;;1.50;;
22983;SDS011;11658;48.908;9.140;2023-05-07T12:03:27;1.98;;;1.55;;
22983;SDS011;11658;48.908;9.140;2023-05-07T12:05:52;2.38;;;1.80;;
22983;SDS011;11658;48.908;9.140;2023-05-07T12:08:19;1.73;;;1.35;;
22983;SDS011;11658;48.908;9.140;2023-05-07T12:10:47;1.80;;;1.50;;
22983;SDS011;11658;48.908;9.140;2023-05-07T12:13:17;5.75;;;1.50;;
22983;SDS011;11658;48.908;9.140;2023-05-07T12:15:44;1.88;;;1.50;;
22983;SDS011;11658;48.908;9.140;2023-05-07T12:18:10;2.22;;;1.70;;
22983;SDS011;11658;48.908;9.140;2023-05-07T12:20:37;2.13;;;1.60;;
22983;SDS011;11658;48.908;9.140;2023-05-07T12:23:03;2.33;;;1.55;;
22983;SDS011;11658;48.908;9.140;2023-05-07T12:25:30;4.70;;;1.60;;
22983;SDS011;11658;48.908;9.140;2023-05-07T12:28:02;2.47;;;1.40;;
22983;SDS011;11658;48.908;9.140;2023-05-07T12:30:30;2.15;;;1.60;;
22983;SDS011;11658;48.908;9.140;2023-05-07T12:33:05;1.50;;;1.40;;
22983;SDS011;11658;48.908;9.140;2023-05-07T12:35:32;2.08;;;1.60;;
22983;SDS011;11658;48.908;9.140;2023-05-07T12:38:08;1.95;;;1.75;;
22983;SDS011;11658;48.908;9.140;2023-05-07T12:40:35;2.42;;;1.60;;
22983;SDS011;11658;48.908;9.140;2023-05-07T12:43:08;2.80;;;1.40;;
22983;SDS011;11658;48.908;9.140;2023-05-07T12:45:44;1.60;;;1.35;;
22983;SDS011;11658;48.908;9.140;2023-05-07T12:48:11;1.58;;;1.30;;
22983;SDS011;11658;48.908;9.140;2023-05-07T12:50:37;1.92;;;1.40;;
22983;SDS011;11658;48.908;9.140;2023-05-07T12:53:04;1.35;;;1.23;;
22983;SDS011;11658;48.908;9.140;2023-05-07T12:55:31;1.70;;;1.40;;
22983;SDS011;11658;48.908;9.140;2023-05-07T12:57:57;2.10;;;1.40;;
22983;SDS011;11658;48.908;9.140;2023-05-07T13:00:33;1.60;;;1.48;;
22983;SDS011;11658;48.908;9.140;2023-05-07T13:03:00;3.72;;;1.85;;
22983;SDS011;11658;48.908;9.140;2023-05-07T13:05:25;2.72;;;1.85;;
22983;SDS011;11658;48.908;9.140;2023-05-07T13:07:55;2.85;;;2.20;;
22983;SDS011;11658;48.908;9.140;2023-05-07T13:10:21;2.85;;;2.20;;
22983;SDS011;11658;48.908;9.140;2023-05-07T13:12:48;2.75;;;1.90;;
22983;SDS011;11658;48.908;9.140;2023-05-07T13:15:14;2.05;;;1.77;;
22983;SDS011;11658;48.908;9.140;2023-05-07T13:17:40;3.42;;;1.70;;
22983;SDS011;11658;48.908;9.140;2023-05-07T13:20:06;2.03;;;1.83;;
22983;SDS011;11658;48.908;9.140;2023-05-07T13:22:33;2.70;;;1.80;;
22983;SDS011;11658;48.908;9.140;2023-05-07T13:24:58;1.52;;;1.42;;
22983;SDS011;11658;48.908;9.140;2023-05-07T13:27:24;3.33;;;1.58;;
22983;SDS011;11658;48.908;9.140;2023-05-07T13:29:51;4.22;;;1.48;;
22983;SDS011;11658;48.908;9.140;2023-05-07T13:32:16;1.20;;;1.10;;
22983;SDS011;11658;48.908;9.140;2023-05-07T13:34:42;1.73;;;1.27;;
22983;SDS011;11658;48.908;9.140;2023-05-07T13:37:07;2.90;;;1.20;;
22983;SDS011;11658;48.908;9.140;2023-05-07T13:39:33;1.75;;;1.20;;
22983;SDS011;11658;48.908;9.140;2023-05-07T13:41:59;2.40;;;1.00;;
22983;SDS011;11658;48.908;9.140;2023-05-07T13:44:26;5.33;;;1.50;;
22983;SDS011;11658;48.908;9.140;2023-05-07T13:46:51;4.72;;;1.63;;
22983;SDS011;11658;48.908;9.140;2023-05-07T13:49:17;2.67;;;1.37;;
22983;SDS011;11658;48.908;9.140;2023-05-07T13:51:42;1.63;;;1.30;;
22983;SDS011;11658;48.908;9.140;2023-05-07T13:54:08;1.47;;;1.30;;
22983;SDS011;11658;48.908;9.140;2023-05-07T13:56:34;2.30;;;1.47;;
22983;SDS011;11658;48.908;9.140;2023-05-07T13:59:00;1.60;;;1.50;;
22983;SDS011;11658;48.908;9.140;2023-05-07T14:01:26;3.37;;;1.70;;
22983;SDS011;11658;48.908;9.140;2023-05-07T14:03:51;1.47;;;1.30;;
22983;SDS011;11658;48.908;9.140;2023-05-07T14:06:17;1.40;;;1.30;;
22983;SDS011;11658;48.908;9.140;2023-05-07T14:08:42;2.33;;;1.40;;
22983;SDS011;11658;48.908;9.140;2023-05-07T14:11:08;1.70;;;1.40;;
22983;SDS011;11658;48.908;9.140;2023-05-07T14:13:34;1.50;;;1.40;;
22983;SDS011;11658;48.908;9.140;2023-05-07T14:15:59;2.07;;;1.40;;
22983;SDS011;11658;48.908;9.140;2023-05-07T14:18:25;2.30;;;1.37;;
22983;SDS011;11658;48.908;9.140;2023-05-07T14:20:51;3.87;;;1.40;;
22983;SDS011;11658;48.908;9.140;2023-05-07T14:23:17;1.33;;;1.23;;
22983;SDS011;11658;48.908;9.140;2023-05-07T14:25:44;2.80;;;1.40;;
22983;SDS011;11658;48.908;9.140;2023-05-07T14:28:12;2.00;;;1.40;;
22983;SDS011;11658;48.908;9.140;2023-05-07T14:30:38;1.60;;;1.50;;
22983;SDS011;11658;48.908;9.140;2023-05-07T14:33:04;2.00;;;1.70;;
22983;SDS011;11658;48.908;9.140;2023-05-07T14:35:29;1.93;;;1.77;;
22983;SDS011;11658;48.908;9.140;2023-05-07T14:37:55;3.27;;;1.77;;
22983;SDS011;11658;48.908;9.140;2023-05-07T14:40:21;2.10;;;1.83;;
22983;SDS011;11658;48.908;9.140;2023-05-07T14:42:46;1.93;;;1.57;;
22983;SDS011;11658;48.908;9.140;2023-05-07T14:45:12;2.57;;;1.90;;
22983;SDS011;11658;48.908;9.140;2023-05-07T14:47:37;2.10;;;1.87;;
22983;SDS011;11658;48.908;9.140;2023-05-07T14:50:03;2.17;;;1.97;;
22983;SDS011;11658;48.908;9.140;2023-05-07T14:52:29;3.20;;;2.07;;
22983;SDS011;11658;48.908;9.140;2023-05-07T14:54:55;4.20;;;2.20;;
22983;SDS011;11658;48.908;9.140;2023-05-07T14:57:20;1.93;;;1.80;;
22983;SDS011;11658;48.908;9.140;2023-05-07T14:59:46;2.03;;;1.80;;
22983;SDS011;11658;48.908;9.140;2023-05-07T15:02:12;3.00;;;2.07;;
22983;SDS011;11658;48.908;9.140;2023-05-07T15:04:38;2.37;;;1.77;;
22983;SDS011;11658;48.908;9.140;2023-05-07T15:07:10;3.47;;;2.10;;
22983;SDS011;11658;48.908;9.140;2023-05-07T15:09:42;2.00;;;1.90;;
22983;SDS011;11658;48.908;9.140;2023-05-07T15:12:09;2.97;;;2.10;;
22983;SDS011;11658;48.908;9.140;2023-05-07T15:14:34;2.97;;;2.13;;
22983;SDS011;11658;48.908;9.140;2023-05-07T15:17:00;2.63;;;1.80;;
22983;SDS011;11658;48.908;9.140;2023-05-07T15:19:26;2.20;;;2.00;;
22983;SDS011;11658;48.908;9.140;2023-05-07T15:21:57;2.17;;;1.97;;
22983;SDS011;11658;48.908;9.140;2023-05-07T15:24:24;2.63;;;1.90;;
22983;SDS011;11658;48.908;9.140;2023-05-07T15:26:51;2.60;;;2.00;;
22983;SDS011;11658;48.908;9.140;2023-05-07T15:29:17;2.80;;;2.17;;
22983;SDS011;11658;48.908;9.140;2023-05-07T15:31:43;4.40;;;2.90;;
22983;SDS011;11658;48.908;9.140;2023-05-07T15:34:09;3.07;;;2.20;;
22983;SDS011;11658;48.908;9.140;2023-05-07T15:36:35;4.93;;;2.40;;
22983;SDS011;11658;48.908;9.140;2023-05-07T15:39:00;2.40;;;2.20;;
22983;SDS011;11658;48.908;9.140;2023-05-07T15:41:27;3.50;;;2.53;;
22983;SDS011;11658;48.908;9.140;2023-05-07T15:43:53;4.03;;;2.73;;
22983;SDS011;11658;48.908;9.140;2023-05-07T15:46:19;2.57;;;2.37;;
22983;SDS011;11658;48.908;9.140;2023-05-07T15:48:46;3.83;;;2.30;;
22983;SDS011;11658;48.908;9.140;2023-05-07T15:51:11;3.60;;;2.40;;
22983;SDS011;11658;48.908;9.140;2023-05-07T15:53:37;2.40;;;2.20;;
22983;SDS011;11658;48.908;9.140;2023-05-07T15:56:04;3.37;;;2.40;;
22983;SDS011;11658;48.908;9.140;2023-05-07T15:58:29;3.60;;;2.37;;
22983;SDS011;11658;48.908;9.140;2023-05-07T16:00:55;3.67;;;2.40;;
22983;SDS011;11658;48.908;9.140;2023-05-07T16:03:21;2.53;;;2.10;;
22983;SDS011;11658;48.908;9.140;2023-05-07T16:05:47;2.63;;;2.30;;
22983;SDS011;11658;48.908;9.140;2023-05-07T16:08:13;3.10;;;2.20;;
22983;SDS011;11658;48.908;9.140;2023-05-07T16:10:39;4.33;;;2.40;;
22983;SDS011;11658;48.908;9.140;2023-05-07T16:13:05;3.20;;;2.40;;
22983;SDS011;11658;48.908;9.140;2023-05-07T16:15:31;2.30;;;2.10;;
22983;SDS011;11658;48.908;9.140;2023-05-07T16:17:56;2.23;;;2.03;;
22983;SDS011;11658;48.908;9.140;2023-05-07T16:20:26;2.50;;;2.30;;
22983;SDS011;11658;48.908;9.140;2023-05-07T16:22:55;2.63;;;2.43;;
22983;SDS011;11658;48.908;9.140;2023-05-07T16:25:21;2.37;;;2.17;;
22983;SDS011;11658;48.908;9.140;2023-05-07T16:27:46;3.23;;;2.30;;
22983;SDS011;11658;48.908;9.140;2023-05-07T16:30:12;2.40;;;2.20;;
22983;SDS011;11658;48.908;9.140;2023-05-07T16:32:38;3.57;;;2.20;;
22983;SDS011;11658;48.908;9.140;2023-05-07T16:35:03;2.63;;;2.20;;
22983;SDS011;11658;48.908;9.140;2023-05-07T16:37:31;2.67;;;2.17;;
22983;SDS011;11658;48.908;9.140;2023-05-07T16:39:59;2.47;;;2.27;;
22983;SDS011;11658;48.908;9.140;2023-05-07T16:42:26;2.30;;;2.10;;
22983;SDS011;11658;48.908;9.140;2023-05-07T16:44:52;3.07;;;2.03;;
22983;SDS011;11658;48.908;9.140;2023-05-07T16:47:18;2.63;;;2.37;;
22983;SDS011;11658;48.908;9.140;2023-05-07T16:49:44;4.20;;;2.40;;
22983;SDS011;11658;48.908;9.140;2023-05-07T16:52:10;3.47;;;2.30;;
22983;SDS011;11658;48.908;9.140;2023-05-07T16:54:36;4.17;;;2.30;;
22983;SDS011;11658;48.908;9.140;2023-05-07T16:57:01;2.40;;;2.20;;
22983;SDS011;11658;48.908;9.140;2023-05-07T16:59:27;4.97;;;2.70;;
22983;SDS011;11658;48.908;9.140;2023-05-07T17:01:56;4.67;;;2.47;;
22983;SDS011;11658;48.908;9.140;2023-05-07T17:04:22;3.30;;;2.30;;
22983;SDS011;11658;48.908;9.140;2023-05-07T17:06:47;3.00;;;2.60;;
22983;SDS011;11658;48.908;9.140;2023-05-07T17:09:13;2.63;;;2.40;;
22983;SDS011;11658;48.908;9.140;2023-05-07T17:11:38;4.80;;;3.07;;
22983;SDS011;11658;48.908;9.140;2023-05-07T17:14:04;2.97;;;2.23;;
22983;SDS011;11658;48.908;9.140;2023-05-07T17:16:30;3.30;;;2.40;;
22983;SDS011;11658;48.908;9.140;2023-05-07T17:18:55;2.73;;;2.40;;
22983;SDS011;11658;48.908;9.140;2023-05-07T17:21:21;2.67;;;2.47;;
22983;SDS011;11658;48.908;9.140;2023-05-07T17:23:46;3.47;;;2.30;;
22983;SDS011;11658;48.908;9.140;2023-05-07T17:26:12;2.60;;;2.40;;
22983;SDS011;11658;48.908;9.140;2023-05-07T17:28:38;3.13;;;2.70;;
22983;SDS011;11658;48.908;9.140;2023-05-07T17:31:04;3.57;;;2.90;;
22983;SDS011;11658;48.908;9.140;2023-05-07T17:33:30;4.53;;;2.70;;
22983;SDS011;11658;48.908;9.140;2023-05-07T17:35:56;3.00;;;2.70;;
22983;SDS011;11658;48.908;9.140;2023-05-07T17:38:21;3.37;;;2.73;;
22983;SDS011;11658;48.908;9.140;2023-05-07T17:40:47;4.33;;;2.70;;
22983;SDS011;11658;48.908;9.140;2023-05-07T17:43:13;4.47;;;2.67;;
22983;SDS011;11658;48.908;9.140;2023-05-07T17:45:39;3.00;;;2.73;;
22983;SDS011;11658;48.908;9.140;2023-05-07T17:48:05;2.50;;;2.30;;
22983;SDS011;11658;48.908;9.140;2023-05-07T17:50:31;2.97;;;2.40;;
22983;SDS011;11658;48.908;9.140;2023-05-07T17:52:57;2.77;;;2.47;;
22983;SDS011;11658;48.908;9.140;2023-05-07T17:55:22;3.73;;;3.40;;
22983;SDS011;11658;48.908;9.140;2023-05-07T17:57:48;3.63;;;3.33;;
22983;SDS011;11658;48.908;9.140;2023-05-07T18:00:14;4.93;;;3.23;;
22983;SDS011;11658;48.908;9.140;2023-05-07T18:02:40;2.60;;;2.40;;
22983;SDS011;11658;48.908;9.140;2023-05-07T18:05:06;2.60;;;2.40;;
22983;SDS011;11658;48.908;9.140;2023-05-07T18:07:33;3.27;;;2.63;;
22983;SDS011;11658;48.908;9.140;2023-05-07T18:09:59;4.40;;;2.80;;
22983;SDS011;11658;48.908;9.140;2023-05-07T18:12:24;5.43;;;2.60;;
22983;SDS011;11658;48.908;9.140;2023-05-07T18:14:50;3.63;;;2.77;;
22983;SDS011;11658;48.908;9.140;2023-05-07T18:17:16;2.50;;;2.30;;
22983;SDS011;11658;48.908;9.140;2023-05-07T18:19:41;5.23;;;2.83;;
22983;SDS011;11658;48.908;9.140;2023-05-07T18:22:07;6.97;;;5.13;;
22983;SDS011;11658;48.908;9.140;2023-05-07T18:24:33;7.13;;;6.07;;
22983;SDS011;11658;48.908;9.140;2023-05-07T18:26:59;3.30;;;3.00;;
22983;SDS011;11658;48.908;9.140;2023-05-07T18:29:24;3.47;;;2.90;;
22983;SDS011;11658;48.908;9.140;2023-05-07T18:31:50;3.40;;;2.70;;
22983;SDS011;11658;48.908;9.140;2023-05-07T18:34:16;3.10;;;2.50;;
22983;SDS011;11658;48.908;9.140;2023-05-07T18:36:41;3.80;;;3.30;;
22983;SDS011;11658;48.908;9.140;2023-05-07T18:39:07;5.17;;;2.67;;
22983;SDS011;11658;48.908;9.140;2023-05-07T18:41:33;2.93;;;2.40;;
22983;SDS011;11658;48.908;9.140;2023-05-07T18:43:59;3.00;;;2.10;;
22983;SDS011;11658;48.908;9.140;2023-05-07T18:46:25;2.40;;;2.20;;
22983;SDS011;11658;48.908;9.140;2023-05-07T18:48:52;2.93;;;2.20;;
22983;SDS011;11658;48.908;9.140;2023-05-07T18:51:18;2.70;;;2.50;;
22983;SDS011;11658;48.908;9.140;2023-05-07T18:53:44;3.63;;;2.50;;
22983;SDS011;11658;48.908;9.140;2023-05-07T18:56:10;3.40;;;2.37;;
22983;SDS011;11658;48.908;9.140;2023-05-07T18:58:36;5.70;;;2.63;;
22983;SDS011;11658;48.908;9.140;2023-05-07T19:01:01;2.60;;;2.40;;
22983;SDS011;11658;48.908;9.140;2023-05-07T19:03:31;2.47;;;2.20;;
22983;SDS011;11658;48.908;9.140;2023-05-07T19:06:00;2.83;;;2.40;;
22983;SDS011;11658;48.908;9.140;2023-05-07T19:08:25;2.67;;;2.30;;
22983;SDS011;11658;48.908;9.140;2023-05-07T19:10:54;3.60;;;2.43;;
22983;SDS011;11658;48.908;9.140;2023-05-07T19:13:20;3.20;;;2.27;;
22983;SDS011;11658;48.908;9.140;2023-05-07T19:15:47;3.30;;;2.50;;
22983;SDS011;11658;48.908;9.140;2023-05-07T19:18:13;3.23;;;2.40;;
22983;SDS011;11658;48.908;9.140;2023-05-07T19:20:38;4.07;;;2.60;;
22983;SDS011;11658;48.908;9.140;2023-05-07T19:23:04;3.10;;;2.67;;
22983;SDS011;11658;48.908;9.140;2023-05-07T19:25:33;3.33;;;2.73;;
22983;SDS011;11658;48.908;9.140;2023-05-07T19:27:58;3.43;;;2.60;;
22983;SDS011;11658;48.908;9.140;2023-05-07T19:30:24;2.93;;;2.60;;
22983;SDS011;11658;48.908;9.140;2023-05-07T19:32:50;5.40;;;2.73;;
22983;SDS011;11658;48.908;9.140;2023-05-07T19:35:16;3.47;;;2.97;;
22983;SDS011;11658;48.908;9.140;2023-05-07T19:37:41;5.23;;;2.90;;
22983;SDS011;11658;48.908;9.140;2023-05-07T19:40:07;3.13;;;2.70;;
22983;SDS011;11658;48.908;9.140;2023-05-07T19:42:33;3.30;;;3.00;;
22983;SDS011;11658;48.908;9.140;2023-05-07T19:44:59;3.47;;;3.10;;
22983;SDS011;11658;48.908;9.140;2023-05-07T19:47:24;4.40;;;3.10;;
22983;SDS011;11658;48.908;9.140;2023-05-07T19:49:50;5.83;;;3.13;;
22983;SDS011;11658;48.908;9.140;2023-05-07T19:52:16;4.27;;;3.10;;
22983;SDS011;11658;48.908;9.140;2023-05-07T19:54:41;4.73;;;3.30;;